Time;durP1;ratioP1;P1;durP2;ratioP2;P2;SDS_P1;SDS_P2;PMS_P1;PMS_P2;Temp;Humidity;BMP_temperature;BMP_pressure;BME280_temperature;BME280_humidity;BME280_pressure;Samples;Min_cycle;Max_cycle;Signal;HPM_P1;HPM_P2
2022/01/31 00:00:16;;;;;;;15.15;9.57;;;;;;;-3.44;79.28;97124.81;4871533;29;20427;-70
2022/01/31 00:02:43;;;;;;;15.45;9.32;;;;;;;-3.49;79.30;97105.97;4871144;29;20084;-71
2022/01/31 00:05:08;;;;;;;12.02;6.88;;;;;;;-3.34;79.49;97104.28;4869677;29;20048;-73
2022/01/31 00:07:33;;;;;;;8.27;5.15;;;;;;;-3.35;79.19;97110.41;4869614;29;20044;-71
2022/01/31 00:09:58;;;;;;;15.75;8.25;;;;;;;-3.27;78.68;97112.59;4869611;29;20053;-71
2022/01/31 00:12:26;;;;;;;15.32;8.93;;;;;;;-3.25;78.93;97114.19;4894391;29;20056;-72
2022/01/31 00:14:53;;;;;;;10.85;7.40;;;;;;;-3.24;79.19;97109.81;4869941;29;20185;-72
2022/01/31 00:17:18;;;;;;;16.63;9.30;;;;;;;-3.32;78.92;97118.06;4863771;29;20044;-73
2022/01/31 00:19:44;;;;;;;23.17;11.50;;;;;;;-3.32;78.94;97100.69;4872790;29;20044;-72
2022/01/31 00:22:11;;;;;;;19.17;10.65;;;;;;;-3.33;78.76;97111.19;4868662;29;20381;-72
2022/01/31 00:24:37;;;;;;;15.82;8.05;;;;;;;-3.11;79.12;97110.78;4871664;29;20080;-71
2022/01/31 00:27:04;;;;;;;9.80;6.13;;;;;;;-3.14;79.08;97108.34;4876759;29;20044;-73
2022/01/31 00:29:29;;;;;;;14.85;5.53;;;;;;;-3.18;78.41;97104.25;4869074;29;20415;-70
2022/01/31 00:31:53;;;;;;;9.50;4.72;;;;;;;-3.10;78.08;97102.88;4869784;29;20404;-68
2022/01/31 00:34:18;;;;;;;14.30;7.82;;;;;;;-3.15;78.28;97093.66;4871255;29;20785;-69
2022/01/31 00:36:43;;;;;;;22.38;12.50;;;;;;;-3.31;78.29;97089.31;4869666;29;20511;-71
2022/01/31 00:39:08;;;;;;;20.50;9.70;;;;;;;-3.38;79.13;97082.78;4869823;29;20431;-71
2022/01/31 00:41:33;;;;;;;14.15;7.00;;;;;;;-3.39;79.52;97081.13;4871443;29;20040;-71
2022/01/31 00:44:02;;;;;;;17.98;10.27;;;;;;;-3.35;80.09;97082.59;4876141;29;20044;-68
2022/01/31 00:46:36;;;;;;;14.98;8.20;;;;;;;-3.30;79.98;97093.63;4879508;29;20107;-68
2022/01/31 00:49:02;;;;;;;19.20;10.65;;;;;;;-3.27;79.41;97079.56;4880624;29;20391;-68
2022/01/31 00:51:26;;;;;;;19.33;9.75;;;;;;;-3.25;79.50;97076.88;4863506;29;20844;-69
2022/01/31 00:53:51;;;;;;;19.70;10.75;;;;;;;-3.21;79.98;97084.44;4879537;29;20499;-69
2022/01/31 00:56:16;;;;;;;12.23;8.32;;;;;;;-3.11;79.53;97080.38;4880511;29;20056;-67
2022/01/31 00:58:40;;;;;;;20.95;11.10;;;;;;;-3.07;79.74;97075.81;4879295;29;20048;-66
2022/01/31 01:01:05;;;;;;;18.40;9.80;;;;;;;-3.11;79.02;97075.16;4879107;29;20054;-67
2022/01/31 01:03:30;;;;;;;20.67;11.63;;;;;;;-3.18;79.42;97073.00;4879399;29;20044;-68
2022/01/31 01:05:55;;;;;;;14.05;6.22;;;;;;;-3.07;79.89;97081.88;4879187;29;20062;-66
2022/01/31 01:08:20;;;;;;;17.92;9.88;;;;;;;-3.03;78.64;97075.53;4879098;29;20456;-63
2022/01/31 01:10:45;;;;;;;11.52;6.88;;;;;;;-3.05;78.69;97068.75;4880208;29;20044;-66
2022/01/31 01:13:09;;;;;;;21.75;11.70;;;;;;;-3.13;79.33;97063.97;4879354;29;20048;-66
2022/01/31 01:15:34;;;;;;;20.45;9.27;;;;;;;-3.14;79.32;97061.44;4880655;29;20574;-68
2022/01/31 01:17:59;;;;;;;15.18;9.57;;;;;;;-3.02;79.11;97061.59;4879192;29;20044;-66
2022/01/31 01:20:24;;;;;;;11.57;7.13;;;;;;;-3.07;79.04;97049.75;4879159;29;20055;-67
2022/01/31 01:22:49;;;;;;;19.35;10.23;;;;;;;-3.17;78.90;97069.47;4880224;29;20044;-65
2022/01/31 01:25:15;;;;;;;21.33;11.23;;;;;;;-3.14;79.27;97071.88;4880352;29;20073;-64
2022/01/31 01:27:42;;;;;;;19.50;10.98;;;;;;;-3.10;79.11;97082.03;4878827;29;20456;-64
2022/01/31 01:30:09;;;;;;;22.77;11.32;;;;;;;-3.11;78.91;97082.13;4880143;29;20052;-63
2022/01/31 01:32:44;;;;;;;23.00;12.18;;;;;;;-3.06;78.88;97087.94;4879130;29;20051;-63
2022/01/31 01:35:09;;;;;;;10.18;6.32;;;;;;;-3.02;79.33;97078.97;4879304;29;20495;-64
2022/01/31 01:37:34;;;;;;;28.63;11.90;;;;;;;-3.02;78.17;97085.03;4878913;29;20404;-63
2022/01/31 01:39:59;;;;;;;24.60;12.48;;;;;;;-3.06;78.63;97086.16;4878828;29;20107;-63
2022/01/31 01:42:24;;;;;;;18.95;10.63;;;;;;;-3.02;78.75;97086.81;4863076;29;20048;-63
2022/01/31 01:44:50;;;;;;;12.07;6.30;;;;;;;-2.98;79.01;97086.53;4862955;29;20048;-63
2022/01/31 01:47:21;;;;;;;22.27;11.55;;;;;;;-3.09;78.91;97088.09;4865244;29;20064;-64
2022/01/31 01:49:46;;;;;;;13.43;6.72;;;;;;;-3.06;78.95;97070.53;4861450;29;20048;-63
2022/01/31 01:52:13;;;;;;;15.90;6.53;;;;;;;-2.99;78.89;97078.81;4875871;29;20052;-65
2022/01/31 01:54:38;;;;;;;22.85;11.38;;;;;;;-2.95;78.73;97083.78;4861666;29;20057;-63
2022/01/31 01:57:03;;;;;;;17.08;8.80;;;;;;;-2.97;78.44;97083.00;4869868;29;20041;-64
2022/01/31 01:59:33;;;;;;;15.55;8.27;;;;;;;-2.97;78.59;97077.81;4859842;29;20045;-64
2022/01/31 02:02:18;;;;;;;21.25;11.13;;;;;;;-3.02;78.43;97078.97;4854963;29;20068;-66
2022/01/31 02:04:43;;;;;;;21.63;10.88;;;;;;;-3.09;78.73;97075.91;4881878;29;20052;-64
2022/01/31 02:07:21;;;;;;;20.52;9.85;;;;;;;-3.05;78.80;97074.78;4866634;29;20052;-64
2022/01/31 02:09:53;;;;;;;17.58;10.70;;;;;;;-2.91;79.20;97071.38;4873193;29;20129;-65
2022/01/31 02:12:19;;;;;;;16.85;8.57;;;;;;;-2.87;78.90;97087.69;4860139;29;20123;-65
2022/01/31 02:14:43;;;;;;;20.83;10.50;;;;;;;-2.94;78.94;97082.84;4864291;29;20108;-64
2022/01/31 02:17:34;;;;;;;13.88;9.40;;;;;;;-2.94;78.80;97082.00;4815897;29;20467;-64
2022/01/31 02:20:08;;;;;;;20.98;12.25;;;;;;;-3.10;79.09;97081.22;4807549;29;20062;-64
2022/01/31 02:22:33;;;;;;;15.80;8.57;;;;;;;-3.12;79.22;97070.88;4792078;29;20054;-64
2022/01/31 02:24:58;;;;;;;24.38;12.40;;;;;;;-3.05;79.45;97081.78;4807325;29;20056;-64
2022/01/31 02:27:34;;;;;;;19.60;11.45;;;;;;;-2.95;79.47;97082.94;4806819;29;20094;-64
2022/01/31 02:30:06;;;;;;;22.52;11.57;;;;;;;-3.08;79.35;97074.97;4807155;29;20052;-64
2022/01/31 02:32:35;;;;;;;18.13;8.90;;;;;;;-2.98;79.46;97077.88;4812566;29;20126;-71
2022/01/31 02:35:02;;;;;;;11.63;6.93;;;;;;;-2.87;79.38;97078.09;4806976;29;20062;-69
2022/01/31 02:37:27;;;;;;;13.65;8.18;;;;;;;-2.83;79.20;97084.81;4807080;29;20442;-71
2022/01/31 02:40:00;;;;;;;22.17;11.85;;;;;;;-3.03;79.00;97075.53;4791670;29;20054;-68
2022/01/31 02:42:25;;;;;;;10.07;6.07;;;;;;;-2.92;79.22;97080.97;4791039;29;20427;-69
2022/01/31 02:44:50;;;;;;;10.02;7.13;;;;;;;-2.82;79.22;97083.06;4792140;29;20045;-68
2022/01/31 02:47:24;;;;;;;16.17;9.63;;;;;;;-2.85;79.07;97078.84;4791211;29;20129;-68
2022/01/31 02:50:01;;;;;;;16.20;8.90;;;;;;;-2.88;79.23;97092.06;4807124;29;20533;-65
2022/01/31 02:52:31;;;;;;;20.50;11.25;;;;;;;-2.95;79.29;97073.34;4791655;29;20045;-64
2022/01/31 02:54:57;;;;;;;16.80;7.60;;;;;;;-2.95;79.88;97080.31;4849173;29;20060;-64
2022/01/31 02:57:22;;;;;;;19.35;8.57;;;;;;;-2.95;79.61;97075.13;4878573;29;20072;-64
2022/01/31 02:59:47;;;;;;;22.58;9.40;;;;;;;-3.04;80.06;97075.63;4864139;29;20056;-63
2022/01/31 03:02:14;;;;;;;20.42;9.80;;;;;;;-3.05;80.13;97082.59;4862518;29;20053;-64
2022/01/31 03:04:39;;;;;;;18.00;10.23;;;;;;;-2.97;80.29;97076.97;4864276;29;20089;-64
2022/01/31 03:07:09;;;;;;;22.23;13.40;;;;;;;-2.95;80.82;97075.13;4862529;29;20059;-65
2022/01/31 03:09:34;;;;;;;25.25;10.98;;;;;;;-2.85;80.01;97080.63;4847185;29;20694;-64
2022/01/31 03:12:02;;;;;;;15.55;8.43;;;;;;;-2.78;79.99;97074.94;4862571;29;20108;-66
2022/01/31 03:14:33;;;;;;;22.48;11.77;;;;;;;-2.85;79.47;97076.25;4878221;29;20470;-71
2022/01/31 03:16:58;;;;;;;15.85;9.88;;;;;;;-2.87;80.37;97085.09;4846877;29;20478;-68
2022/01/31 03:19:38;;;;;;;17.67;8.38;;;;;;;-2.80;80.26;97082.00;4862657;29;20056;-66
2022/01/31 03:22:03;;;;;;;23.10;11.38;;;;;;;-2.85;79.84;97086.69;4878747;29;20081;-66
2022/01/31 03:24:28;;;;;;;20.65;10.27;;;;;;;-2.81;79.48;97069.91;4863739;29;20044;-67
2022/01/31 03:26:53;;;;;;;21.05;11.55;;;;;;;-2.81;79.80;97079.50;4846777;29;20040;-70
2022/01/31 03:29:18;;;;;;;19.42;9.35;;;;;;;-2.82;79.84;97075.22;4846982;29;20571;-68
2022/01/31 03:31:42;;;;;;;20.85;9.43;;;;;;;-2.78;79.39;97072.34;4863587;29;20048;-69
2022/01/31 03:34:07;;;;;;;17.38;10.23;;;;;;;-2.84;80.30;97072.72;4878199;29;20067;-70
2022/01/31 03:36:33;;;;;;;13.13;7.25;;;;;;;-2.75;80.00;97066.13;4846686;29;20825;-69
2022/01/31 03:38:58;;;;;;;21.58;9.50;;;;;;;-2.83;79.55;97082.22;4846486;29;20048;-68
2022/01/31 03:41:23;;;;;;;19.45;9.15;;;;;;;-2.80;80.32;97089.00;4877826;29;20059;-69
2022/01/31 03:43:48;;;;;;;12.60;7.32;;;;;;;-2.77;79.57;97081.84;4863265;29;20048;-69
2022/01/31 03:46:13;;;;;;;21.70;11.57;;;;;;;-2.84;79.65;97085.75;4863336;29;20049;-67
2022/01/31 03:48:38;;;;;;;18.80;11.10;;;;;;;-2.89;79.98;97085.16;4862508;29;20051;-68
2022/01/31 03:51:12;;;;;;;26.90;13.20;;;;;;;-2.81;79.89;97072.50;4862037;29;20139;-68
2022/01/31 03:53:37;;;;;;;18.83;10.68;;;;;;;-2.86;79.91;97077.19;4874532;29;20056;-69
2022/01/31 03:56:02;;;;;;;14.95;7.18;;;;;;;-2.86;80.33;97068.50;4874611;29;20108;-68
2022/01/31 03:58:36;;;;;;;22.20;12.07;;;;;;;-2.81;80.20;97069.91;4890982;29;20608;-67
2022/01/31 04:01:09;;;;;;;14.90;7.90;;;;;;;-2.86;80.52;97074.56;4855563;29;20047;-67
2022/01/31 04:03:34;;;;;;;16.98;9.27;;;;;;;-2.82;80.53;97078.66;4870422;29;20048;-67
2022/01/31 04:05:59;;;;;;;19.10;9.05;;;;;;;-2.66;79.62;97070.78;4871270;29;20063;-71
2022/01/31 04:08:23;;;;;;;19.60;8.52;;;;;;;-2.64;79.44;97080.19;4872656;29;20112;-68
2022/01/31 04:10:48;;;;;;;18.00;9.32;;;;;;;-2.66;79.16;97066.41;4870811;29;20048;-68
2022/01/31 04:13:16;;;;;;;23.10;12.23;;;;;;;-2.76;79.79;97067.03;4869602;29;20127;-68
2022/01/31 04:15:41;;;;;;;24.27;12.70;;;;;;;-2.78;79.88;97064.50;4877752;29;20068;-68
2022/01/31 04:18:05;;;;;;;20.13;9.25;;;;;;;-2.65;79.92;97062.88;4886473;29;20055;-67
2022/01/31 04:20:30;;;;;;;19.98;9.75;;;;;;;-2.67;79.27;97063.88;4878788;29;20044;-68
2022/01/31 04:23:09;;;;;;;25.27;12.50;;;;;;;-2.79;79.65;97062.00;4867891;29;20040;-68
2022/01/31 04:25:54;;;;;;;22.90;10.15;;;;;;;-2.74;79.89;97073.00;4861965;29;20424;-68
2022/01/31 04:28:22;;;;;;;16.60;8.20;;;;;;;-2.68;79.89;97070.03;4862187;29;20544;-70
2022/01/31 04:30:55;;;;;;;23.42;10.25;;;;;;;-2.70;80.14;97069.25;4862225;29;20539;-70
2022/01/31 04:33:20;;;;;;;19.98;10.07;;;;;;;-2.67;79.98;97069.09;4862277;29;20055;-70
2022/01/31 04:35:45;;;;;;;25.23;12.00;;;;;;;-2.77;80.01;97073.19;4892512;29;20526;-70
2022/01/31 04:38:10;;;;;;;20.42;10.20;;;;;;;-2.76;79.94;97064.44;4861940;29;20044;-69
2022/01/31 11:26:01;;;;;;;31.00;16.40;;;;;;;-1.03;81.82;97031.72;5838502;23;20159;-73
2022/01/31 11:28:31;;;;;;;42.70;17.25;;;;;;;-0.89;82.05;97028.97;4898912;29;20411;-72
2022/01/31 11:30:56;;;;;;;45.28;19.15;;;;;;;-0.87;81.57;97016.66;4900246;29;20051;-72
2022/01/31 11:33:23;;;;;;;47.60;19.88;;;;;;;-0.94;81.82;97020.63;4903002;29;20039;-72
2022/01/31 11:35:49;;;;;;;43.53;17.77;;;;;;;-0.99;82.18;97014.84;4900262;29;20130;-71
2022/01/31 11:38:16;;;;;;;41.00;17.60;;;;;;;-0.94;81.90;97023.25;4899522;29;20070;-70
2022/01/31 11:40:41;;;;;;;34.42;16.90;;;;;;;-0.91;82.05;97023.88;4882041;29;20126;-71
2022/01/31 11:43:06;;;;;;;44.83;17.63;;;;;;;-0.87;81.90;97024.50;4882751;29;20179;-69
2022/01/31 11:45:35;;;;;;;32.92;14.65;;;;;;;-0.89;81.84;97028.97;4881083;29;20044;-70
2022/01/31 11:48:09;;;;;;;36.70;17.23;;;;;;;-0.90;81.66;97022.91;4880889;29;20059;-72
2022/01/31 11:50:46;;;;;;;44.05;20.15;;;;;;;-1.01;81.80;97030.63;4882018;29;20111;-70
2022/01/31 11:53:11;;;;;;;37.03;16.70;;;;;;;-1.04;82.02;97025.63;4865729;29;20051;-69
2022/01/31 11:55:38;;;;;;;33.65;14.77;;;;;;;-0.99;82.20;97035.78;4882868;29;20051;-68
2022/01/31 11:58:08;;;;;;;27.05;14.35;;;;;;;-0.98;81.89;97040.06;4880509;29;20044;-68
2022/01/31 12:00:37;;;;;;;47.55;19.90;;;;;;;-1.03;82.14;97037.78;4881887;29;20143;-66
2022/01/31 12:03:05;;;;;;;40.92;17.85;;;;;;;-1.03;82.45;97034.31;4881573;29;20127;-71
2022/01/31 12:05:33;;;;;;;29.42;12.38;;;;;;;-1.00;82.34;97034.09;4881756;29;20400;-69
2022/01/31 12:08:17;;;;;;;39.15;17.70;;;;;;;-0.91;81.93;97034.34;4864398;29;20087;-69
2022/01/31 12:10:46;;;;;;;45.97;20.90;;;;;;;-1.03;81.57;97039.56;4880352;29;20056;-70
2022/01/31 12:13:48;;;;;;;39.53;18.45;;;;;;;-1.01;82.31;97035.03;4881426;29;20270;-70
2022/01/31 12:22:05;;;;;;;47.75;18.65;;;;;;;-1.02;81.96;97025.53;4881723;29;20131;-71
2022/01/31 12:24:44;;;;;;;45.97;21.10;;;;;;;-1.10;81.72;97026.03;4882655;29;20122;-72
2022/01/31 12:27:17;;;;;;;41.50;17.65;;;;;;;-1.13;82.13;97018.41;4890377;29;20426;-70
2022/01/31 12:29:48;;;;;;;47.38;19.30;;;;;;;-1.15;82.14;97028.97;4889671;29;20044;-76
2022/01/31 12:32:19;;;;;;;31.05;13.43;;;;;;;-1.10;82.57;97024.25;4890002;29;20052;-74
2022/01/31 12:34:56;;;;;;;30.40;14.07;;;;;;;-1.06;82.69;97016.22;4891545;29;20048;-73
2022/01/31 12:37:33;;;;;;;44.85;18.60;;;;;;;-1.02;82.35;97020.31;4888870;29;20046;-74
2022/01/31 12:40:04;;;;;;;32.78;17.80;;;;;;;-1.13;82.72;97024.44;4890602;29;20054;-73
2022/01/31 12:45:32;;;;;;;37.78;17.00;;;;;;;-1.03;82.44;97016.03;4890911;29;20058;-69
2022/01/31 12:48:06;;;;;;;33.75;16.90;;;;;;;-1.01;82.39;97016.72;4891113;29;20130;-72
2022/01/31 12:50:34;;;;;;;30.25;13.38;;;;;;;-0.99;82.25;97017.47;4891381;29;20052;-71
2022/01/31 12:53:06;;;;;;;29.80;16.05;;;;;;;-1.07;82.22;97025.00;4888410;29;20852;-71
2022/01/31 12:55:32;;;;;;;34.15;16.35;;;;;;;-1.08;82.50;97020.69;4891270;29;20126;-72
2022/01/31 12:57:57;;;;;;;32.70;16.58;;;;;;;-1.17;82.71;97025.63;4887850;29;20036;-73
2022/01/31 13:00:43;;;;;;;30.67;14.35;;;;;;;-0.97;82.40;97015.59;4890129;29;20044;-72
2022/01/31 13:03:08;;;;;;;39.22;18.60;;;;;;;-1.10;82.51;97021.63;4890048;29;20039;-73
2022/01/31 13:05:35;;;;;;;39.13;18.00;;;;;;;-1.13;82.70;97016.59;4890483;29;20524;-72
2022/01/31 13:07:59;;;;;;;30.13;15.77;;;;;;;-1.16;82.81;97021.22;4888569;29;20495;-69
2022/01/31 13:10:24;;;;;;;39.15;16.83;;;;;;;-1.17;82.95;97025.63;4889609;29;20522;-75
2022/01/31 13:13:00;;;;;;;27.73;11.57;;;;;;;-1.01;83.14;97020.19;4889182;29;20046;-74
2022/01/31 13:15:25;;;;;;;45.85;19.20;;;;;;;-1.08;83.18;97023.31;4857613;29;20398;-74
2022/01/31 13:17:50;;;;;;;34.17;18.02;;;;;;;-1.10;82.77;97007.72;4882969;29;20771;-71
2022/01/31 13:20:15;;;;;;;33.05;17.77;;;;;;;-1.06;82.97;97024.06;4889676;29;20044;-74
2022/01/31 13:22:41;;;;;;;26.23;14.35;;;;;;;-1.04;82.80;97014.34;4888472;29;20055;-71
2022/01/31 13:25:13;;;;;;;34.03;16.35;;;;;;;-1.10;82.82;97026.88;4871380;29;20035;-74
2022/01/31 13:27:45;;;;;;;32.85;17.00;;;;;;;-1.15;83.21;97021.13;4888259;29;20055;-71
2022/01/31 13:30:12;;;;;;;38.08;17.08;;;;;;;-1.08;83.55;97010.25;4889494;29;20043;-70
2022/01/31 13:32:39;;;;;;;31.13;17.23;;;;;;;-1.14;83.45;97014.97;4888572;29;20039;-67
2022/01/31 13:35:07;;;;;;;36.63;15.73;;;;;;;-1.08;83.44;97015.47;4887231;29;20036;-68
2022/01/31 13:37:46;;;;;;;29.40;16.92;;;;;;;-1.14;83.45;97017.56;4874361;29;20039;-67
2022/01/31 13:40:33;;;;;;;36.13;18.23;;;;;;;-1.07;83.53;97017.16;4889011;29;20067;-68
2022/01/31 13:43:01;;;;;;;33.45;17.05;;;;;;;-1.15;83.14;97012.44;4889003;29;20052;-66
2022/01/31 13:45:31;;;;;;;34.10;16.35;;;;;;;-1.12;83.83;97020.91;4889549;29;20102;-66
2022/01/31 13:48:04;;;;;;;33.88;16.48;;;;;;;-1.00;83.43;97021.03;4889338;29;20044;-64
2022/01/31 13:50:35;;;;;;;35.47;17.30;;;;;;;-1.07;83.68;97018.00;4892019;29;20414;-66
2022/01/31 13:53:32;;;;;;;20.02;10.77;;;;;;;-0.95;83.79;97011.09;4890355;29;20540;-67
2022/01/31 13:55:58;;;;;;;25.80;13.13;;;;;;;-1.02;83.64;97017.69;4887478;29;20720;-67
2022/01/31 13:58:26;;;;;;;26.85;14.75;;;;;;;-1.06;83.69;97011.00;4890433;29;20512;-67
2022/01/31 14:00:52;;;;;;;27.77;16.05;;;;;;;-1.12;83.82;97020.06;4864049;29;20035;-67
2022/01/31 14:03:19;;;;;;;29.83;15.75;;;;;;;-1.04;83.90;97006.50;4891858;29;20047;-67
2022/01/31 14:06:00;;;;;;;29.30;15.98;;;;;;;-1.04;83.93;97001.28;4891333;29;20464;-65
2022/01/31 14:08:39;;;;;;;32.83;16.25;;;;;;;-0.94;83.90;97000.53;4891415;29;20043;-67
2022/01/31 14:11:11;;;;;;;32.40;15.07;;;;;;;-0.88;83.47;96999.28;4893463;29;20054;-70
2022/01/31 14:13:37;;;;;;;34.08;16.92;;;;;;;-0.89;83.15;96998.44;4894296;29;20088;-77
2022/01/31 14:16:03;;;;;;;30.98;13.38;;;;;;;-0.91;82.84;97009.97;4892168;29;20443;-71
2022/01/31 14:18:32;;;;;;;27.20;14.32;;;;;;;-0.99;83.03;96996.56;4894475;29;20056;-70
2022/01/31 14:21:03;;;;;;;30.25;14.95;;;;;;;-1.07;83.48;97004.09;4894819;29;20040;-69
2022/01/31 14:23:33;;;;;;;33.72;15.35;;;;;;;-0.97;83.65;97010.38;4881814;29;20409;-70
2022/01/31 14:25:58;;;;;;;29.70;14.95;;;;;;;-0.94;83.47;97010.16;4890628;29;20036;-66
2022/01/31 14:28:33;;;;;;;31.65;15.05;;;;;;;-0.95;83.39;97004.09;4892893;29;20039;-71
2022/01/31 14:30:58;;;;;;;33.15;17.75;;;;;;;-0.97;83.31;97008.59;4912404;29;20036;-65
2022/01/31 14:33:23;;;;;;;26.35;10.82;;;;;;;-0.89;83.15;97010.69;4892843;29;20054;-66
2022/01/31 14:36:10;;;;;;;22.35;12.85;;;;;;;-0.82;83.36;97006.72;4892764;29;20131;-64
2022/01/31 14:38:44;;;;;;;33.45;17.02;;;;;;;-0.95;82.93;97011.94;4889760;29;20040;-66
2022/01/31 14:49:12;;;;;;;30.23;16.65;;;;;;;-0.96;83.59;97017.28;4899662;29;20542;-69
2022/01/31 14:51:41;;;;;;;28.20;13.13;;;;;;;-0.93;83.59;97014.47;4902160;29;20067;-68
2022/01/31 14:54:13;;;;;;;29.92;17.85;;;;;;;-1.01;83.92;97008.88;4901320;29;20047;-66
2022/01/31 14:56:40;;;;;;;31.75;14.38;;;;;;;-0.93;84.03;97014.47;4900547;29;20043;-69
2022/01/31 14:59:06;;;;;;;20.42;10.10;;;;;;;-0.84;83.70;97006.00;4902240;29;20490;-69
2022/01/31 15:01:33;;;;;;;32.95;16.58;;;;;;;-0.84;83.37;97006.00;4900673;29;20119;-68
2022/01/31 15:03:58;;;;;;;34.17;18.00;;;;;;;-0.88;83.04;97000.13;4901780;29;20184;-69
2022/01/31 15:06:22;;;;;;;32.10;16.10;;;;;;;-0.92;82.86;96997.84;4884969;29;20225;-69
2022/01/31 15:08:47;;;;;;;32.17;15.35;;;;;;;-0.81;82.88;96995.31;4902543;29;20054;-63
2022/01/31 15:11:13;;;;;;;29.42;15.38;;;;;;;-0.98;83.08;96998.22;4901619;29;20043;-62
2022/01/31 15:13:40;;;;;;;28.92;14.73;;;;;;;-0.93;83.46;96996.16;4904136;29;20054;-63
2022/01/31 15:16:08;;;;;;;30.77;17.55;;;;;;;-0.93;83.35;96989.16;4902289;29;20405;-62
2022/01/31 15:18:38;;;;;;;25.38;13.60;;;;;;;-0.81;83.26;96984.88;4884387;29;20044;-63
2022/01/31 15:21:04;;;;;;;26.48;15.63;;;;;;;-0.80;82.69;96986.53;4901714;29;20092;-62
2022/01/31 15:23:40;;;;;;;23.92;13.88;;;;;;;-0.94;82.78;96984.03;4884561;29;20849;-63
2022/01/31 15:26:07;;;;;;;24.25;13.95;;;;;;;-0.90;83.07;96986.31;4900111;29;20070;-62
2022/01/31 15:28:34;;;;;;;27.77;13.40;;;;;;;-0.97;83.32;96999.91;4901400;29;20051;-62
2022/01/31 15:30:59;;;;;;;26.65;14.27;;;;;;;-0.88;83.25;96988.81;4901620;29;20043;-61
2022/01/31 15:33:23;;;;;;;30.73;15.27;;;;;;;-0.84;82.96;96990.28;4901323;29;20058;-63
2022/01/31 15:35:51;;;;;;;22.25;12.82;;;;;;;-0.76;82.95;96986.22;4900082;29;20051;-62
2022/01/31 15:38:17;;;;;;;24.55;13.35;;;;;;;-0.86;83.01;96992.16;4900023;29;20046;-64
2022/01/31 15:40:42;;;;;;;29.42;14.70;;;;;;;-0.84;83.22;96990.28;4900124;29;20134;-64
2022/01/31 15:43:10;;;;;;;26.00;13.77;;;;;;;-0.97;83.23;96989.44;4888469;29;20054;-65
2022/01/31 15:45:35;;;;;;;30.98;15.48;;;;;;;-0.93;83.26;96988.31;4887647;29;20048;-63
2022/01/31 15:48:00;;;;;;;31.10;17.98;;;;;;;-0.98;83.42;96974.69;4884738;29;20046;-64
2022/01/31 15:50:26;;;;;;;27.17;14.90;;;;;;;-0.97;83.56;96984.22;4884440;29;20051;-63
2022/01/31 15:52:50;;;;;;;24.27;12.52;;;;;;;-1.00;83.60;96987.88;4884965;29;20487;-65
2022/01/31 15:55:15;;;;;;;25.80;13.82;;;;;;;-0.98;83.89;96982.53;4883618;29;20410;-64
2022/01/31 15:57:41;;;;;;;29.30;14.52;;;;;;;-0.99;83.70;96989.53;4881918;29;20059;-64
2022/01/31 16:00:10;;;;;;;26.15;14.38;;;;;;;-1.01;83.86;96983.56;4882597;29;20044;-63
2022/01/31 16:02:43;;;;;;;18.88;10.00;;;;;;;-0.94;83.77;96984.03;4882769;29;20055;-64
2022/01/31 16:05:09;;;;;;;19.83;10.55;;;;;;;-1.00;83.88;96979.19;4883588;29;20126;-63
2022/01/31 16:07:34;;;;;;;18.92;11.90;;;;;;;-0.98;83.71;96985.16;4898599;29;20218;-63
2022/01/31 16:09:59;;;;;;;21.88;12.23;;;;;;;-0.97;83.76;96984.22;4865312;29;20131;-63
2022/01/31 16:12:23;;;;;;;23.42;13.38;;;;;;;-1.06;83.79;96984.84;4882139;29;20052;-63
2022/01/31 16:14:48;;;;;;;24.30;13.93;;;;;;;-0.98;83.87;96982.53;4881966;29;20128;-63
2022/01/31 16:17:13;;;;;;;25.42;12.73;;;;;;;-0.96;83.74;96975.44;4881940;29;20036;-65
2022/01/31 16:19:38;;;;;;;23.27;13.02;;;;;;;-1.05;84.10;96970.84;4881663;29;20533;-63
2022/01/31 16:22:03;;;;;;;21.45;12.73;;;;;;;-1.11;83.94;96970.28;4880591;29;20055;-63
2022/01/31 16:24:28;;;;;;;22.45;11.70;;;;;;;-0.97;84.48;96973.75;4881631;29;20056;-64
2022/01/31 16:26:53;;;;;;;22.55;12.82;;;;;;;-1.02;84.44;96961.00;4881234;29;20462;-61
2022/01/31 16:29:18;;;;;;;24.58;13.55;;;;;;;-0.97;84.21;96963.31;4896192;29;20084;-64
2022/01/31 16:31:45;;;;;;;26.08;13.75;;;;;;;-0.93;83.83;96959.53;4880349;29;20115;-62
2022/01/31 16:34:10;;;;;;;25.90;12.50;;;;;;;-0.95;83.82;96953.56;4881472;29;20044;-64
2022/01/31 16:36:35;;;;;;;20.83;11.95;;;;;;;-0.90;83.45;96960.16;4881030;29;20058;-64
2022/01/31 16:39:00;;;;;;;18.50;10.40;;;;;;;-0.95;83.58;96956.19;4881143;29;20079;-62
2022/01/31 16:41:25;;;;;;;22.02;11.98;;;;;;;-0.95;83.81;96958.81;4864203;29;20082;-62
2022/01/31 16:43:49;;;;;;;21.27;13.75;;;;;;;-1.01;83.49;96957.44;4881120;29;20055;-63
2022/01/31 16:46:14;;;;;;;20.88;11.52;;;;;;;-1.00;83.75;96963.50;4881141;29;20060;-63
2022/01/31 16:48:40;;;;;;;22.75;11.45;;;;;;;-0.97;84.15;96960.69;4880934;29;20484;-61
2022/01/31 16:51:05;;;;;;;14.77;7.88;;;;;;;-0.91;83.85;96968.13;4895576;29;20431;-63
2022/01/31 16:53:31;;;;;;;17.55;9.82;;;;;;;-0.83;83.29;96957.97;4881373;29;20416;-62
2022/01/31 16:55:55;;;;;;;19.40;11.60;;;;;;;-1.00;83.64;96953.03;4881560;29;20466;-63
2022/01/31 16:58:20;;;;;;;22.52;12.75;;;;;;;-0.95;83.52;96957.03;4897727;29;20040;-63
2022/01/31 17:00:45;;;;;;;20.15;12.10;;;;;;;-0.99;83.70;96950.31;4888830;29;20047;-62
2022/01/31 17:03:11;;;;;;;20.15;11.02;;;;;;;-0.88;83.97;96958.28;4892383;29;20154;-62
2022/01/31 17:05:37;;;;;;;22.02;12.07;;;;;;;-0.91;83.70;96953.28;4886070;29;20047;-62
2022/01/31 17:08:03;;;;;;;20.23;12.30;;;;;;;-0.96;83.41;96944.91;4881528;29;20047;-62
2022/01/31 17:10:28;;;;;;;21.35;12.40;;;;;;;-1.02;83.74;96954.94;4881147;29;20048;-64
2022/01/31 17:12:55;;;;;;;22.10;12.70;;;;;;;-0.97;83.92;96961.53;4896070;29;20044;-62
2022/01/31 17:15:20;;;;;;;22.05;13.13;;;;;;;-0.97;83.82;96956.28;4880705;29;20071;-64
2022/01/31 17:17:46;;;;;;;23.90;12.70;;;;;;;-0.85;83.54;96949.38;4879412;29;20044;-64
2022/01/31 17:20:13;;;;;;;24.70;13.63;;;;;;;-0.91;83.69;96957.66;4863574;29;20063;-62
2022/01/31 17:22:38;;;;;;;18.85;11.40;;;;;;;-1.00;83.67;96955.66;4868050;29;20036;-65
2022/01/31 17:25:04;;;;;;;18.90;11.20;;;;;;;-0.99;83.75;96959.94;4888484;29;20044;-64
2022/01/31 17:27:30;;;;;;;20.38;12.00;;;;;;;-0.96;83.99;96944.91;4888467;29;20062;-65
2022/01/31 17:29:55;;;;;;;16.35;8.38;;;;;;;-0.90;84.02;96948.84;4889564;29;20056;-63
2022/01/31 17:32:20;;;;;;;19.70;11.93;;;;;;;-0.99;84.15;96942.47;4889680;29;20070;-62
2022/01/31 17:34:45;;;;;;;14.20;8.15;;;;;;;-0.97;84.20;96951.06;4887986;29;20443;-62
2022/01/31 17:37:10;;;;;;;20.67;11.27;;;;;;;-0.87;84.10;96951.25;4888738;29;20040;-63
2022/01/31 17:39:35;;;;;;;19.75;9.70;;;;;;;-0.91;84.18;96947.22;4887042;29;20091;-63
2022/01/31 17:42:06;;;;;;;21.92;11.50;;;;;;;-0.95;84.34;96946.56;4889545;29;20573;-63
2022/01/31 17:44:34;;;;;;;17.67;10.15;;;;;;;-0.99;84.20;96939.88;4892529;29;20059;-64
2022/01/31 17:47:00;;;;;;;20.52;11.45;;;;;;;-0.99;84.54;96931.19;4892976;29;20050;-63
2022/01/31 17:49:26;;;;;;;26.20;14.13;;;;;;;-0.93;84.33;96938.63;4890812;29;20072;-62
2022/01/31 17:51:51;;;;;;;21.17;12.20;;;;;;;-1.00;84.24;96942.59;4894038;29;20051;-64
2022/01/31 17:54:16;;;;;;;19.13;11.65;;;;;;;-1.03;84.19;96946.25;4886897;29;20036;-65
2022/01/31 17:56:41;;;;;;;24.30;13.05;;;;;;;-0.97;84.75;96945.84;4886799;29;20050;-64
2022/01/31 17:59:07;;;;;;;23.67;13.63;;;;;;;-0.96;84.42;96959.75;4888585;29;20032;-63
2022/01/31 18:01:32;;;;;;;19.33;11.60;;;;;;;-0.93;84.62;96954.31;4887859;29;20044;-64
2022/01/31 18:03:57;;;;;;;22.08;12.05;;;;;;;-1.00;84.64;96942.59;4871075;29;20091;-63
2022/01/31 18:06:22;;;;;;;19.83;11.90;;;;;;;-0.98;84.76;96946.78;4887034;29;20044;-64
2022/01/31 18:08:48;;;;;;;19.13;11.23;;;;;;;-0.94;84.83;96944.78;4889712;29;20506;-64
2022/01/31 18:11:14;;;;;;;20.20;12.27;;;;;;;-0.94;84.99;96953.47;4889398;29;20048;-63
2022/01/31 18:13:39;;;;;;;18.60;11.05;;;;;;;-0.90;84.76;96939.22;4870663;29;20889;-64
2022/01/31 18:16:05;;;;;;;20.95;11.10;;;;;;;-0.90;84.86;96948.84;4869137;29;20059;-63
2022/01/31 18:18:30;;;;;;;24.02;12.60;;;;;;;-0.82;84.57;96941.34;4871524;29;20032;-64
2022/01/31 18:20:56;;;;;;;19.35;11.07;;;;;;;-0.91;84.58;96949.81;4857099;29;20050;-63
2022/01/31 18:23:21;;;;;;;23.02;11.10;;;;;;;-0.94;84.67;96950.88;4867718;29;20035;-64